Details From PATK - Talkeetna
To PAPG - Petersburg James A Johnson
Flight Number -
Tags Generated
Created
Modified
Stats Distance 615 nm / 1,140 km
Max Altitude 0 ft / 0 m
Waypoints 4
Social Downloads 0
Likes 0
Share VATSIM

Download

Looking for another format? Having issues loading an existing format? Contact us
Advertisement - Login to hide

Notes

Generated

Route

PATK WAPER BLOUT PAPG

ID Type Via Altitude Latitude Longitude Leg Dist Tot Dist Heading (true) Name
O PATK APT - 0 ft / 0 m 62.32478˚ -150.08901˚ - 0 nm - TALKEETNA
WAPER FIX - 0 ft / 0 m 59.62631˚ -140.15644˚ 331 nm 331 nm 115° / 124° -
BLOUT FIX - 0 ft / 0 m 56.79410˚ -132.98617˚ 283 nm 614 nm 124° / 130° -
O PAPG APT - 0 ft / 0 m 56.79894˚ -132.95942˚ 0 nm 615 nm 72° / 72° -

Altitude Profile

Advertisement - Login to hide

Weather


0- 5 10 15 20 25 30 35+ Temperature / ° C

Clouds and Precipitation
Forecast for 2017-12-17 18:00 UTC. Updated an hour ago

Ground ~20,000 ft ~40,000 ft Winds

PATK

Details ICAO PATK (TKA)
Name TALKEETNA
Region USA (Alaska)
Timezone America/Anchorage (UTC-9.0)
Stats Elevation 358 ft / 109 m (AMSL)
Location 62.320512° -150.093685°
Runways 1
Magnetic Variation 16.353° E

METAR

PATK 171253Z AUTO 00000KT 10SM OVC050 M02/M04 A2938 RMK AO2 SLP954 T10221039 TSNO $

Decode

TAF

TAF PATK 171145Z 1712/1812 VRB03KT P6SM SCT020 OVC050 FM172000 VRB03KT P6SM SCT080

Decode

Departure Runways

ID Width Length Bearing (true) Bearing (mag) Surface Threshold Offset Overrun Length
18 75 ft / 23 m 3,503 ft / 1,068 m 207.01° 190.66° Asphalt 0 ft / 0 m 0 ft / 0 m
36 75 ft / 23 m 3,503 ft / 1,068 m 27.01° 10.66° Asphalt 0 ft / 0 m 0 ft / 0 m

PAPG

Details ICAO PAPG (PSG)
Name PETERSBURG JAMES A JOHNSON
Region USA (Alaska)
Timezone America/Juneau (UTC-9.0)
Stats Elevation 105 ft / 32 m (AMSL)
Location 56.801651° -132.945289°
Runways 1
Magnetic Variation 18.864° E

METAR

PAPG 171256Z AUTO 00000KT 10SM BKN036 BKN043 OVC055 02/01 A2981 RMK AO2 SLP098 T00170011 FZRANO

Decode

TAF

TAF PAPG 171138Z 1712/1812 25003KT P6SM VCSH SCT025 BKN035 TEMPO 1714/1718 VRB03KT 6SM -SHSNRA BKN025 OVC035 FM171800 VRB04KT 6SM -SHRASN BKN025 OVC035 AMD LTD TO CLD VIS AND WIND 1712/1715

Decode

Destination Runways

ID Width Length Bearing (true) Bearing (mag) Surface Threshold Offset Overrun Length
04 150 ft / 46 m 5,982 ft / 1,823 m 70.70° 51.84° Asphalt 0 ft / 0 m 0 ft / 0 m
22 150 ft / 46 m 5,982 ft / 1,823 m 250.73° 231.87° Asphalt 0 ft / 0 m 0 ft / 0 m

Approach Navaids

Runway Type Ident Frequency Range Bearing (true) Bearing (mag) Slope Elevation
22 Localiser IPSG 110.50 MHz 18 nm / 33 km 185.00° 166.14° - 151 ft / 46 m (AMSL)
22 DME IPSG 110.50 MHz 18 nm / 33 km - - - 164 ft / 50 m (AMSL)